Data for 05/03/2016

Time Sea-Level Adjusted Pressure Absolute Pressure Temperature Relative Humidity Dew Point   
(mb) (inHg) (mb) (inHg) (C) (F) (%) (C) (F)
00:05 1022 30.18 852 25.16 9.5 49.1 38 -4.1 24.6
00:10 1022 30.18 852 25.16 9.5 49.1 38 -4.1 24.7
00:15 1022 30.18 852 25.16 9.5 49.1 38 -3.9 24.9
00:20 1022 30.18 852 25.16 9.2 48.5 39 -3.9 24.9
00:25 1023 30.21 852 25.16 9 48.3 40 -3.9 25.1
00:30 1023 30.21 852 25.16 9.1 48.3 40 -3.9 24.9
00:35 1022 30.18 852 25.16 9.2 48.6 39 -3.9 24.9
00:40 1022 30.18 852 25.16 9.3 48.8 39 -3.8 25.2
00:45 1022 30.18 852 25.16 9.2 48.5 40 -3.6 25.5
00:50 1022 30.18 852 25.16 8.9 48 42 -3.3 26
00:55 1022 30.18 852 25.16 8.7 47.6 43 -3.2 26.2
01:00 1022 30.18 852 25.16 8.5 47.4 42 -3.5 25.7
01:05 1022 30.18 852 25.16 8.7 47.7 43 -3.2 26.2
01:10 1022 30.18 852 25.16 8.6 47.5 44 -3 26.6
01:15 1022 30.18 852 25.16 8.6 47.4 43 -3.3 26.1
01:20 1022 30.18 852 25.16 8.9 47.9 42 -3.4 25.9
01:25 1022 30.18 852 25.16 8.9 47.9 42 -3.4 25.8
01:30 1022 30.18 852 25.16 8.7 47.7 43 -3.1 26.4
01:35 1023 30.21 852 25.16 8.5 47.3 43 -3.2 26.3
01:40 1023 30.21 852 25.16 8.2 46.7 44 -3.2 26.3
01:45 1023 30.21 852 25.16 8 46.4 44 -3.4 25.9
01:50 1023 30.21 852 25.16 8.1 46.6 44 -3.5 25.7
01:55 1023 30.21 852 25.16 7.9 46.3 45 -3.3 26.1
02:00 1022 30.18 852 25.16 7.6 45.8 48 -2.8 27
02:05 1023 30.21 852 25.16 7 44.7 49 -3 26.6
02:10 1023 30.21 852 25.16 7.1 44.7 48 -3 26.5
02:15 1023 30.21 852 25.16 7.2 45 48 -3.2 26.3
02:20 1023 30.21 852 25.16 7.6 45.7 46 -3.3 26
02:25 1023 30.21 852 25.16 8.4 47.1 42 -3.7 25.3
02:30 1022 30.18 852 25.16 8.5 47.3 45 -2.7 27.1
02:35 1022 30.18 852 25.16 8 46.3 47 -2.7 27.1
02:40 1022 30.18 852 25.16 7.9 46.2 46 -3 26.6
02:45 1022 30.18 852 25.16 7.9 46.2 46 -2.9 26.8
02:50 1022 30.18 852 25.16 7.6 45.6 47 -3.1 26.5
02:55 1022 30.18 852 25.16 7.6 45.7 46 -3.3 26
03:00 1022 30.18 852 25.16 7.9 46.2 45 -3.3 26
03:05 1023 30.21 852 25.16 7.9 46.3 45 -3.2 26.2
03:10 1023 30.21 852 25.16 7.9 46.3 45 -3.3 26.1
03:15 1023 30.21 852 25.16 8.2 46.8 45 -3 26.7
03:20 1023 30.21 852 25.16 8.4 47.1 45 -2.9 26.7
03:25 1023 30.21 852 25.16 8.4 47 45 -2.9 26.7
03:30 1023 30.21 852 25.16 8.2 46.7 45 -3 26.7
03:35 1023 30.21 852 25.16 8.2 46.8 43 -3.5 25.7
03:40 1023 30.21 852 25.16 8.6 47.4 43 -3.4 25.9
03:45 1023 30.21 852 25.16 8.8 47.8 43 -3.2 26.3
03:50 1023 30.21 852 25.16 8 46.4 45 -3 26.5
03:55 1023 30.21 852 25.16 7.7 45.9 48 -2.7 27.1
04:00 1023 30.21 852 25.16 7.2 44.9 49 -2.8 26.9
04:05 1023 30.21 852 25.16 6.9 44.4 51 -2.6 27.3
04:10 1023 30.21 852 25.16 6.7 44.1 49 -3.2 26.3
04:15 1023 30.21 852 25.16 7.2 45 48 -3.1 26.4
04:20 1023 30.21 852 25.16 7.1 44.7 50 -2.6 27.2
04:25 1023 30.21 852 25.16 6.8 44.3 51 -2.7 27.1
04:30 1023 30.21 852 25.16 6.6 43.9 52 -2.7 27.2
04:35 1023 30.21 852 25.16 6.3 43.4 52 -2.9 26.8
04:40 1023 30.21 852 25.16 6.6 44 49 -3.2 26.3
04:45 1023 30.21 852 25.16 7.1 44.8 49 -3 26.6
04:50 1023 30.21 852 25.16 7.1 44.7 50 -2.8 27
04:55 1023 30.21 852 25.16 6.7 44.1 50 -2.9 26.9
05:00 1023 30.21 852 25.16 6.8 44.3 49 -3 26.6
05:05 1023 30.21 853 25.19 7 44.6 51 -2.3 27.8
05:10 1023 30.21 853 25.19 6.8 44.2 51 -2.7 27.2
05:15 1023 30.21 853 25.19 6.5 43.7 53 -2.4 27.7
05:20 1023 30.21 853 25.19 6.1 42.9 54 -2.5 27.4
05:25 1023 30.21 853 25.19 5.9 42.6 54 -2.8 27
05:30 1023 30.21 853 25.19 5.8 42.5 56 -2.3 27.9
05:35 1023 30.21 853 25.19 5.5 41.8 57 -2.3 27.8
05:40 1023 30.21 853 25.19 5.3 41.5 57 -2.6 27.4
05:45 1023 30.21 853 25.19 5.7 42.2 54 -2.8 27
05:50 1023 30.21 853 25.19 6.1 43.1 53 -2.7 27.2
05:55 1024 30.24 853 25.19 6.4 43.5 52 -2.6 27.3
06:00 1024 30.24 853 25.19 6.7 44.1 52 -2.4 27.6
06:05 1024 30.24 853 25.19 6.7 44.1 53 -2.3 27.9
06:10 1024 30.24 853 25.19 6.8 44.3 52 -2.3 27.8
06:15 1024 30.24 853 25.19 6.7 44.1 52 -2.3 27.8
06:20 1024 30.24 853 25.19 6.9 44.4 52 -2.4 27.7
06:25 1024 30.24 853 25.19 6.9 44.5 52 -2.3 27.8
06:30 1024 30.24 853 25.19 7.2 44.9 51 -2.2 28
06:35 1024 30.24 853 25.19 7.4 45.3 51 -2.1 28.1
06:40 1024 30.24 853 25.19 7.9 46.3 48 -2.3 27.9
06:45 1024 30.24 853 25.19 8.4 47 47 -2.4 27.7
06:50 1024 30.24 853 25.19 8.9 47.9 46 -2.1 28.2
06:55 1024 30.24 853 25.19 9.2 48.5 45 -2.1 28.3
07:00 1024 30.24 853 25.19 9.5 49.2 45 -1.9 28.7
07:05 1024 30.24 853 25.19 10 50 43 -1.8 28.7
07:10 1024 30.24 853 25.19 10.5 50.9 41 -2.1 28.1
07:15 1024 30.24 853 25.19 10.6 51.1 40 -2.3 27.9
07:20 1024 30.24 853 25.19 11.2 52.2 39 -2 28.3
07:25 1024 30.24 853 25.19 11.4 52.5 39 -1.9 28.6
07:30 1024 30.24 853 25.19 11.7 53.1 38 -2.1 28.2
07:35 1024 30.24 853 25.19 12.1 53.8 36 -2.5 27.5
07:40 1024 30.24 853 25.19 12.5 54.4 34 -3.1 26.4
07:45 1024 30.24 853 25.19 13.1 55.6 33 -2.8 27
07:50 1024 30.24 853 25.19 13.9 57.1 31 -2.7 27.2
07:55 1024 30.24 853 25.19 14.5 58.1 30 -2.6 27.2
08:00 1024 30.24 853 25.19 14.3 57.8 30 -2.9 26.7
08:05 1024 30.24 853 25.19 14.1 57.3 32 -2.2 28
08:10 1024 30.24 853 25.19 14 57.1 38 -0.2 31.6
08:15 1024 30.24 853 25.19 13.5 56.3 38 -0.4 31.3
08:20 1024 30.24 853 25.19 14.5 58.1 36 -0.2 31.7
08:25 1024 30.24 853 25.19 14.4 57.9 36 -0.6 31
08:30 1024 30.24 853 25.19 13.9 57 40 0.6 33.1
08:35 1024 30.24 853 25.19 13.6 56.5 40 0.2 32.4
08:40 1024 30.24 853 25.19 13.3 55.9 41 0.4 32.7
08:45 1024 30.24 853 25.19 13.1 55.5 40 -0.3 31.5
08:50 1024 30.24 853 25.19 14.2 57.6 37 -0.1 31.8
08:55 1024 30.24 853 25.19 14.7 58.4 37 0.2 32.3
09:00 1024 30.24 853 25.19 14 57.2 38 -0 32
09:05 1024 30.24 853 25.19 14.5 58.2 37 0.3 32.5
09:10 1024 30.24 853 25.19 15.1 59.2 36 0.2 32.4
09:15 1024 30.24 853 25.19 15.4 59.7 34 -0.2 31.6
09:20 1024 30.24 853 25.19 15.9 60.7 34 0.3 32.5
09:25 1024 30.24 853 25.19 16.3 61.4 33 0.2 32.3
09:30 1024 30.24 853 25.19 16.5 61.6 33 0.1 32.1
09:35 1024 30.24 853 25.19 16.5 61.6 33 0.1 32.3
09:40 1024 30.24 853 25.19 16.7 62.1 33 0.3 32.6
09:45 1024 30.24 853 25.19 17 62.6 32 0.3 32.5
09:50 1024 30.24 853 25.19 16.8 62.3 30 -0.7 30.7
09:55 1024 30.24 853 25.19 17.3 63.1 31 0.2 32.3
10:00 1024 30.24 853 25.19 17.1 62.7 30 -0.3 31.4
10:05 1024 30.24 853 25.19 17.5 63.5 29 -0.4 31.4
10:10 1024 30.24 853 25.19 17.9 64.2 30 0.1 32.1
10:15 1024 30.24 853 25.19 18.5 65.3 27 -0.5 31.2
10:20 1024 30.24 853 25.19 18.2 64.8 27 -1 30.2
10:25 1024 30.24 853 25.19 18.2 64.7 26 -1.3 29.6
10:30 1024 30.24 853 25.19 18.1 64.5 27 -1.2 29.9
10:35 1024 30.24 853 25.19 18.6 65.4 24 -2.1 28.1
10:40 1024 30.24 853 25.19 19 66.2 24 -1.9 28.6
10:45 1024 30.24 853 25.19 19 66.1 25 -1.3 29.7
10:50 1024 30.24 853 25.19 19.3 66.7 24 -1.8 28.8
10:55 1024 30.24 853 25.19 19 66.2 22 -3.2 26.3
11:00 1024 30.24 853 25.19 19.4 67 23 -2.3 27.8
11:05 1024 30.24 853 25.19 19.7 67.4 21 -3 26.6
11:10 1024 30.24 853 25.19 19.7 67.5 22 -2.7 27.2
11:15 1024 30.24 853 25.19 19.3 66.7 23 -2.5 27.5
11:20 1024 30.24 853 25.19 19.7 67.5 20 -3.7 25.4
11:25 1024 30.24 853 25.19 20.1 68.2 22 -2.4 27.6
11:30 1024 30.24 853 25.19 20 68.1 22 -2.4 27.7
11:35 1024 30.24 853 25.19 20.4 68.8 18 -4.7 23.6
11:40 1024 30.24 853 25.19 20.6 69 20 -3.1 26.4
11:45 1024 30.24 853 25.19 20.9 69.6 17 -5 23
11:50 1023 30.21 853 25.19 21.5 70.8 18 -3.6 25.4
11:55 1023 30.21 853 25.19 21.8 71.3 18 -3.2 26.3
12:00 1023 30.21 853 25.19 21.5 70.6 18 -3.4 25.9
12:05 1023 30.21 853 25.19 21.5 70.7 19 -3.2 26.2
12:10 1023 30.21 853 25.19 21.6 70.9 19 -2.7 27.2
12:15 1023 30.21 852 25.16 22 71.7 15 -5.4 22.3
12:20 1023 30.21 852 25.16 22.1 71.8 16 -5.1 22.8
12:25 1023 30.21 852 25.16 21.8 71.2 14 -6.8 19.8
12:30 1023 30.21 852 25.16 22.3 72.1 14 -6 21.1
12:35 1023 30.21 852 25.16 22 71.5 15 -6 21.2
12:40 1023 30.21 852 25.16 21.4 70.6 15 -6.1 21.1
12:45 1023 30.21 852 25.16 21.3 70.3 15 -6.2 20.8
12:50 1023 30.21 852 25.16 22.2 72 15 -5.7 21.7
12:55 1023 30.21 852 25.16 22.9 73.2 14 -5.7 21.7
13:00 1023 30.21 852 25.16 23 73.4 14 -5.8 21.6
13:05 1023 30.21 852 25.16 22.6 72.7 15 -5.5 22.1
13:10 1023 30.21 852 25.16 22.7 72.9 14 -6 21.2
13:15 1023 30.21 852 25.16 21.7 71 15 -5.7 21.7
13:20 1023 30.21 852 25.16 21.2 70.1 15 -6.6 20.2
13:25 1023 30.21 852 25.16 22.1 71.8 15 -5.5 22.2
13:30 1023 30.21 852 25.16 22.4 72.4 14 -6.4 20.4
13:35 1023 30.21 852 25.16 23.2 73.8 13 -6.6 20.1
13:40 1023 30.21 852 25.16 22.9 73.3 14 -6.1 21
13:45 1023 30.21 852 25.16 22.7 72.8 14 -5.7 21.8
13:50 1023 30.21 852 25.16 23.6 74.5 14 -5.2 22.6
13:55 1023 30.21 852 25.16 23.1 73.6 14 -6.1 21
14:00 1023 30.21 852 25.16 23.1 73.5 13 -6.6 20.1
14:05 1022 30.18 852 25.16 23.6 74.4 13 -6.7 19.9
14:10 1022 30.18 852 25.16 23.9 75 13 -5.9 21.4
14:15 1022 30.18 852 25.16 23.7 74.6 13 -5.8 21.5
14:20 1022 30.18 852 25.16 23.6 74.5 13 -6.2 20.9
14:25 1022 30.18 852 25.16 24.1 75.4 12 -6.4 20.5
14:30 1022 30.18 851 25.13 23.7 74.6 14 -5.1 22.9
14:35 1022 30.18 851 25.13 23.6 74.5 14 -5.4 22.3
14:40 1022 30.18 851 25.13 23.9 75 13 -5.6 21.9
14:45 1022 30.18 851 25.13 23.2 73.8 13 -6.2 20.8
14:50 1022 30.18 851 25.13 23.3 73.9 14 -5.6 22
14:55 1022 30.18 851 25.13 23.6 74.5 14 -5.6 21.8
15:00 1022 30.18 851 25.13 22.7 72.9 14 -5.6 22
15:05 1022 30.18 851 25.13 23.2 73.8 14 -5.8 21.6
15:10 1022 30.18 851 25.13 23.7 74.7 14 -5.4 22.4
15:15 1022 30.18 851 25.13 24.1 75.4 13 -5.9 21.4
15:20 1022 30.18 851 25.13 24.7 76.5 13 -5.1 22.8
15:25 1022 30.18 851 25.13 24.5 76.2 14 -5 23.1
15:30 1022 30.18 851 25.13 24.2 75.6 13 -5.3 22.5
15:35 1022 30.18 851 25.13 24.2 75.6 13 -5.8 21.6
15:40 1022 30.18 851 25.13 24.1 75.4 14 -5.3 22.5
15:45 1022 30.18 851 25.13 23.7 74.7 14 -5.5 22.2
15:50 1022 30.18 851 25.13 23.6 74.4 13 -5.9 21.4
15:55 1022 30.18 851 25.13 23.7 74.7 13 -5.9 21.4
16:00 1022 30.18 851 25.13 24 75.1 13 -5.9 21.4
16:05 1021 30.15 851 25.13 23.6 74.6 13 -6 21.2
16:10 1021 30.15 851 25.13 23.4 74.2 13 -6 21.2
16:15 1021 30.15 851 25.13 23.6 74.4 13 -6.3 20.7
16:20 1021 30.15 851 25.13 23.9 75 14 -4.9 23.1
16:25 1021 30.15 851 25.13 23.7 74.6 13 -6.6 20.1
16:30 1021 30.15 851 25.13 23.7 74.6 13 -6.6 20.1
16:35 1021 30.15 851 25.13 22.6 72.8 13 -6.6 20.1
16:40 1021 30.15 850 25.1 22.6 72.6 13 -6.8 19.8
16:45 1021 30.15 850 25.1 23.6 74.4 12 -6.9 19.6
16:50 1021 30.15 850 25.1 22.9 73.3 14 -6.2 20.9
16:55 1021 30.15 850 25.1 22.8 73 13 -6.7 19.9
17:00 1021 30.15 850 25.1 22.9 73.2 13 -6.9 19.7
17:05 1021 30.15 850 25.1 22.6 72.6 14 -6.5 20.3
17:10 1021 30.15 850 25.1 22.6 72.7 14 -6.3 20.6
17:15 1021 30.15 850 25.1 23.1 73.6 14 -5.8 21.6
17:20 1021 30.15 850 25.1 23.1 73.5 13 -6.3 20.7
17:25 1021 30.15 850 25.1 22.9 73.3 13 -6.7 20
17:30 1021 30.15 850 25.1 22.6 72.7 13 -6.6 20.1
17:35 1021 30.15 850 25.1 22.8 73 13 -6.7 20
17:40 1021 30.15 850 25.1 23.4 74 13 -6.8 19.7
17:45 1021 30.15 850 25.1 23.5 74.3 13 -6.8 19.8
17:50 1021 30.15 850 25.1 22.8 73.1 13 -6.8 19.8
17:55 1021 30.15 850 25.1 22.3 72.2 13 -7.2 19.1
18:00 1021 30.15 850 25.1 22 71.7 13 -7.2 19
18:05 1021 30.15 850 25.1 22.1 71.9 13 -7.8 18
18:10 1021 30.15 850 25.1 22.1 71.9 12 -8.4 16.9
18:15 1021 30.15 850 25.1 22 71.7 12 -8.9 16
18:20 1021 30.15 850 25.1 21.8 71.2 11 -10.3 13.5
18:25 1021 30.15 850 25.1 21.6 70.8 11 -9.6 14.6
18:30 1021 30.15 850 25.1 21.7 71 12 -9.3 15.3
18:35 1021 30.15 850 25.1 21.6 70.9 12 -9 15.7
18:40 1021 30.15 850 25.1 21.4 70.6 12 -8.6 16.5
18:45 1021 30.15 850 25.1 21.4 70.5 13 -8.2 17.3
18:50 1021 30.15 850 25.1 21.2 70.1 13 -8.5 16.7
18:55 1021 30.15 850 25.1 21.1 69.9 13 -8.5 16.7
19:00 1021 30.15 850 25.1 21.1 69.9 13 -8.7 16.3
19:05 1021 30.15 850 25.1 21.1 70 13 -8.6 16.4
19:10 1020 30.12 850 25.1 21.1 69.9 13 -8.2 17.2
19:15 1020 30.12 850 25.1 21 69.8 16 -5.9 21.4
19:20 1020 30.12 850 25.1 20.8 69.4 18 -4.4 24.1
19:25 1020 30.12 850 25.1 20.4 68.8 19 -3.9 25
19:30 1020 30.12 850 25.1 20.1 68.1 19 -3.9 24.9
19:35 1020 30.12 850 25.1 19.8 67.7 20 -3.5 25.8
19:40 1020 30.12 850 25.1 19.5 67.1 24 -1.6 29.1
19:45 1020 30.12 850 25.1 19 66.2 27 -0.3 31.5
19:50 1020 30.12 850 25.1 17.8 64.1 28 -0.7 30.8
19:55 1021 30.15 850 25.1 17.1 62.8 30 -0.5 31.1
20:00 1021 30.15 850 25.1 16.5 61.6 32 -0.1 31.8
20:05 1021 30.15 850 25.1 15.8 60.5 33 -0.3 31.5
20:10 1021 30.15 850 25.1 15.3 59.5 32 -1.1 30
20:15 1021 30.15 850 25.1 15.3 59.5 31 -1.7 28.9
20:20 1021 30.15 850 25.1 15.2 59.3 32 -1.4 29.5
20:25 1021 30.15 850 25.1 15 59.1 32 -1.6 29.1
20:30 1021 30.15 850 25.1 14.9 58.9 32 -1.6 29.1
20:35 1021 30.15 850 25.1 14.8 58.6 32 -1.6 29.1
20:40 1021 30.15 850 25.1 14.5 58 33 -1.6 29.1
20:45 1021 30.15 850 25.1 14.1 57.4 34 -1.6 29.2
20:50 1021 30.15 850 25.1 13.9 56.9 34 -1.6 29.1
20:55 1021 30.15 850 25.1 13.7 56.6 35 -1.4 29.4
21:00 1021 30.15 850 25.1 13.5 56.3 35 -1.7 29
21:05 1021 30.15 850 25.1 13.5 56.2 34 -1.9 28.6
21:10 1021 30.15 850 25.1 13.6 56.5 34 -1.8 28.7
21:15 1021 30.15 850 25.1 13.5 56.3 34 -2.1 28.2
21:20 1021 30.15 850 25.1 13.5 56.3 34 -1.9 28.5
21:25 1021 30.15 850 25.1 13.3 55.9 35 -1.7 29
21:30 1021 30.15 850 25.1 13.2 55.7 35 -1.8 28.7
21:35 1021 30.15 850 25.1 13.1 55.6 35 -1.8 28.8
21:40 1021 30.15 850 25.1 13 55.3 36 -1.6 29.1
21:45 1021 30.15 850 25.1 12.9 55.1 35 -2.1 28.3
21:50 1021 30.15 850 25.1 13.2 55.7 33 -2.6 27.3
21:55 1021 30.15 850 25.1 13.9 56.9 31 -2.9 26.7
22:00 1021 30.15 850 25.1 14.4 57.8 30 -2.7 27.1
22:05 1021 30.15 850 25.1 14.3 57.7 31 -2.6 27.3
22:10 1021 30.15 850 25.1 13.9 57 33 -2 28.4
22:15 1021 30.15 850 25.1 13.2 55.8 34 -2.1 28.2
22:20 1021 30.15 850 25.1 13.2 55.7 34 -2.2 28
22:25 1021 30.15 850 25.1 13.3 56 33 -2.4 27.6
22:30 1021 30.15 850 25.1 13.3 56 34 -2.2 28
22:35 1021 30.15 850 25.1 13.1 55.6 34 -2.3 27.9
22:40 1021 30.15 850 25.1 12.9 55.2 36 -1.8 28.8
22:45 1021 30.15 850 25.1 12.5 54.5 36 -2 28.5
22:50 1021 30.15 850 25.1 12.6 54.7 36 -2 28.5
22:55 1021 30.15 850 25.1 12.5 54.5 37 -1.8 28.8
23:00 1021 30.15 850 25.1 12.2 54 39 -1.4 29.5
23:05 1021 30.15 850 25.1 11.9 53.4 39 -1.6 29
23:10 1021 30.15 850 25.1 12 53.5 39 -1.6 29.2
23:15 1021 30.15 851 25.13 11.8 53.2 39 -1.5 29.3
23:20 1021 30.15 851 25.13 12.1 53.8 36 -2.5 27.6
23:25 1021 30.15 851 25.13 12.5 54.6 36 -2.1 28.2
23:30 1021 30.15 851 25.13 12.6 54.7 35 -2.5 27.4
23:35 1021 30.15 851 25.13 12.7 54.8 36 -1.9 28.6
23:40 1021 30.15 851 25.13 12.4 54.4 36 -2.2 28.1
23:45 1021 30.15 851 25.13 12.4 54.2 37 -2 28.5
23:50 1021 30.15 851 25.13 12.1 53.7 38 -1.6 29.1
23:55 1021 30.15 851 25.13 11.7 53 40 -1.5 29.3
24:00 1021 30.15 851 25.13 11.3 52.4 41 -1.5 29.4